Time;durP1;ratioP1;P1;durP2;ratioP2;P2;SDS_P1;SDS_P2;PMS_P1;PMS_P2;Temp;Humidity;BMP_temperature;BMP_pressure;BME280_temperature;BME280_humidity;BME280_pressure;Samples;Min_cycle;Max_cycle;Signal;HPM_P1;HPM_P2
2020/04/17 00:00:29;;;;;;;8.35;6.1;;;;;;;8.27;60.23242;95166.53;;;;
2020/04/17 00:01:31;;;;;;;8.35;6.1;;;;;;;8.27;60.23242;95166.53;;;;
2020/04/17 00:02:31;;;;;;;9.799999;6.099999;;;;;;;8.25;60.37793;95162.86;;;;
2020/04/17 00:03:32;;;;;;;9.799999;6.099999;;;;;;;8.25;60.37793;95162.86;;;;
2020/04/17 00:04:32;;;;;;;6.900001;5.7;;;;;;;8.24;60.49414;95167.92;;;;
2020/04/17 00:05:33;;;;;;;6.900001;5.7;;;;;;;8.24;60.49414;95167.92;;;;
2020/04/17 00:06:33;;;;;;;6.900001;5.7;;;;;;;8.24;60.49414;95167.92;;;;
2020/04/17 00:07:34;;;;;;;8.15;5.699999;;;;;;;8.22;60.70508;95161.91;;;;
2020/04/17 00:08:34;;;;;;;8.15;5.699999;;;;;;;8.22;60.70508;95161.91;;;;
2020/04/17 00:09:35;;;;;;;8.15;5.699999;;;;;;;8.22;60.70508;95161.91;;;;
2020/04/17 00:10:35;;;;;;;7.2;5.65;;;;;;;8.2;60.84082;95156.89;;;;
2020/04/17 00:11:36;;;;;;;7.2;5.65;;;;;;;8.2;60.84082;95156.89;;;;
2020/04/17 00:12:36;;;;;;;7;5.3;;;;;;;8.17;60.97656;95159.49;;;;
2020/04/17 00:13:36;;;;;;;7;5.3;;;;;;;8.17;60.97656;95159.49;;;;
2020/04/17 00:14:37;;;;;;;7;5.3;;;;;;;8.17;60.97656;95159.49;;;;
2020/04/17 00:15:37;;;;;;;7.15;5.45;;;;;;;8.16;61.11426;95157.86;;;;
2020/04/17 00:16:38;;;;;;;7.15;5.45;;;;;;;8.16;61.11426;95157.86;;;;
2020/04/17 00:17:38;;;;;;;6.799999;5.05;;;;;;;8.15;61.33594;95157.12;;;;
2020/04/17 00:18:39;;;;;;;6.799999;5.05;;;;;;;8.15;61.33594;95157.12;;;;
2020/04/17 00:19:39;;;;;;;6.799999;5.05;;;;;;;8.15;61.33594;95157.12;;;;
2020/04/17 00:20:39;;;;;;;5.4;4.75;;;;;;;8.14;61.46289;95158.18;;;;
2020/04/17 00:21:40;;;;;;;5.4;4.75;;;;;;;8.14;61.46289;95158.18;;;;
2020/04/17 00:22:40;;;;;;;5.4;4.75;;;;;;;8.14;61.46289;95158.18;;;;
2020/04/17 00:23:41;;;;;;;6.15;4.7;;;;;;;8.13;61.7168;95154.38;;;;
2020/04/17 00:24:41;;;;;;;6.15;4.7;;;;;;;8.13;61.7168;95154.38;;;;
2020/04/17 00:25:41;;;;;;;8.700001;5.05;;;;;;;8.11;61.84277;95154.61;;;;
2020/04/17 00:26:42;;;;;;;8.700001;5.05;;;;;;;8.11;61.84277;95154.61;;;;
2020/04/17 00:27:50;;;;;;;8.700001;5.05;;;;;;;8.11;61.84277;95154.61;;;;
2020/04/17 00:28:50;;;;;;;7.2;4.749999;;;;;;;8.1;62.00195;95153.88;;;;
2020/04/17 00:29:50;;;;;;;7.2;4.749999;;;;;;;8.1;62.00195;95153.88;;;;
2020/04/17 00:30:51;;;;;;;7.2;4.749999;;;;;;;8.1;62.00195;95153.88;;;;
2020/04/17 00:31:51;;;;;;;6.750001;4.85;;;;;;;8.1;62.06641;95153.47;;;;
2020/04/17 00:32:52;;;;;;;6.750001;4.85;;;;;;;8.1;62.06641;95153.47;;;;
2020/04/17 00:33:52;;;;;;;5.9;4.749999;;;;;;;8.08;62.19141;95155.45;;;;
2020/04/17 00:34:53;;;;;;;5.9;4.749999;;;;;;;8.08;62.19141;95155.45;;;;
2020/04/17 00:35:53;;;;;;;5.9;4.749999;;;;;;;8.08;62.19141;95155.45;;;;
2020/04/17 00:36:54;;;;;;;6.7;4.900001;;;;;;;8.06;62.27441;95157.54;;;;
2020/04/17 00:37:54;;;;;;;6.7;4.900001;;;;;;;8.06;62.27441;95157.54;;;;
2020/04/17 00:38:54;;;;;;;5.849999;4.75;;;;;;;8.05;62.42188;95160.46;;;;
2020/04/17 00:39:55;;;;;;;5.849999;4.75;;;;;;;8.05;62.42188;95160.46;;;;
2020/04/17 00:40:55;;;;;;;5.849999;4.75;;;;;;;8.05;62.42188;95160.46;;;;
2020/04/17 00:41:57;;;;;;;5.5;4.85;;;;;;;8.03;62.54688;95162.95;;;;
2020/04/17 00:43:00;;;;;;;5.5;4.85;;;;;;;8.03;62.54688;95162.95;;;;
2020/04/17 00:44:01;;;;;;;5.5;4.85;;;;;;;8.03;62.54688;95162.95;;;;
2020/04/17 00:45:01;;;;;;;6.649999;4.9;;;;;;;8.01;62.76758;95165.46;;;;
2020/04/17 00:46:02;;;;;;;6.649999;4.9;;;;;;;8.01;62.76758;95165.46;;;;
2020/04/17 00:47:02;;;;;;;6.75;4.9;;;;;;;8;62.90625;95163.42;;;;
2020/04/17 00:48:03;;;;;;;6.75;4.9;;;;;;;8;62.90625;95163.42;;;;
2020/04/17 00:49:04;;;;;;;6.75;4.9;;;;;;;8;62.90625;95163.42;;;;
2020/04/17 00:50:05;;;;;;;7.45;4.7;;;;;;;7.99;63.09473;95155.58;;;;
2020/04/17 00:51:07;;;;;;;7.45;4.7;;;;;;;7.99;63.09473;95155.58;;;;
2020/04/17 00:52:09;;;;;;;7.45;4.7;;;;;;;7.99;63.09473;95155.58;;;;
2020/04/17 00:53:10;;;;;;;7.45;4.7;;;;;;;7.99;63.09473;95155.58;;;;
2020/04/17 00:54:10;;;;;;;7.45;4.7;;;;;;;7.99;63.09473;95155.58;;;;
2020/04/17 00:55:11;;;;;;;7.45;4.7;;;;;;;7.99;63.09473;95155.58;;;;
2020/04/17 00:56:11;;;;;;;7.45;4.7;;;;;;;7.99;63.09473;95155.58;;;;
2020/04/17 00:57:14;;;;;;;7.45;4.7;;;;;;;7.99;63.09473;95155.58;;;;
2020/04/17 00:58:15;;;;;;;7.45;4.7;;;;;;;7.99;63.09473;95155.58;;;;
2020/04/17 00:59:17;;;;;;;7.45;4.7;;;;;;;7.99;63.09473;95155.58;;;;
2020/04/17 01:00:19;;;;;;;7.6;4.65;;;;;;;7.6;61.68359;95154.08;;;;
2020/04/17 01:01:20;;;;;;;7.6;4.65;;;;;;;7.6;61.68359;95154.08;;;;
2020/04/17 01:02:21;;;;;;;7.6;4.65;;;;;;;7.6;61.68359;95154.08;;;;
2020/04/17 01:03:21;;;;;;;5.2;4.400001;;;;;;;7.6;62.43066;95154.08;;;;
2020/04/17 01:04:22;;;;;;;5.2;4.400001;;;;;;;7.6;62.43066;95154.08;;;;
2020/04/17 01:05:22;;;;;;;5.2;4.400001;;;;;;;7.6;62.43066;95154.08;;;;
2020/04/17 01:06:23;;;;;;;6.55;4.400001;;;;;;;7.64;63.00293;95154.78;;;;
2020/04/17 01:07:24;;;;;;;6.55;4.400001;;;;;;;7.64;63.00293;95154.78;;;;
2020/04/17 01:08:25;;;;;;;5.750001;4.55;;;;;;;7.7;63.40527;95154.39;;;;
2020/04/17 01:09:25;;;;;;;5.750001;4.55;;;;;;;7.7;63.40527;95154.39;;;;
2020/04/17 01:10:26;;;;;;;5.750001;4.55;;;;;;;7.7;63.40527;95154.39;;;;
2020/04/17 01:11:33;;;;;;;5.750001;4.55;;;;;;;7.7;63.40527;95154.39;;;;
2020/04/17 01:13:43;;;;;;;5.750001;4.55;;;;;;;7.7;63.40527;95154.39;;;;
2020/04/17 01:14:44;;;;;;;5.750001;4.55;;;;;;;7.7;63.40527;95154.39;;;;
2020/04/17 01:15:47;;;;;;;5.750001;4.55;;;;;;;7.7;63.40527;95154.39;;;;
2020/04/17 01:16:49;;;;;;;5.750001;4.55;;;;;;;7.7;63.40527;95154.39;;;;
2020/04/17 01:17:50;;;;;;;5.750001;4.55;;;;;;;7.7;63.40527;95154.39;;;;
2020/04/17 01:18:50;;;;;;;6.799999;4.450001;;;;;;;7.49;61.97852;95152.11;;;;
2020/04/17 01:19:51;;;;;;;6.799999;4.450001;;;;;;;7.49;61.97852;95152.11;;;;
2020/04/17 01:20:51;;;;;;;6.799999;4.450001;;;;;;;7.49;61.97852;95152.11;;;;
2020/04/17 01:21:52;;;;;;;6.149999;4.3;;;;;;;7.52;62.79395;95154.77;;;;
2020/04/17 01:22:55;;;;;;;6.149999;4.3;;;;;;;7.52;62.79395;95154.77;;;;
2020/04/17 01:23:58;;;;;;;6.149999;4.3;;;;;;;7.52;62.79395;95154.77;;;;
2020/04/17 01:24:59;;;;;;;6.249999;4.5;;;;;;;7.64;63.33301;95148.58;;;;
2020/04/17 01:25:59;;;;;;;6.249999;4.5;;;;;;;7.64;63.33301;95148.58;;;;
2020/04/17 01:27:00;;;;;;;4.65;4.15;;;;;;;7.74;63.72168;95141.65;;;;
2020/04/17 01:28:01;;;;;;;4.65;4.15;;;;;;;7.74;63.72168;95141.65;;;;
2020/04/17 01:29:01;;;;;;;4.65;4.15;;;;;;;7.74;63.72168;95141.65;;;;
2020/04/17 01:30:02;;;;;;;6.25;4.5;;;;;;;7.84;64.0127;95145.19;;;;
2020/04/17 01:31:02;;;;;;;6.25;4.5;;;;;;;7.84;64.0127;95145.19;;;;
2020/04/17 01:32:04;;;;;;;6.4;4.75;;;;;;;7.94;64.24121;95144.55;;;;
2020/04/17 01:33:06;;;;;;;6.4;4.75;;;;;;;7.94;64.24121;95144.55;;;;
2020/04/17 01:34:06;;;;;;;6.4;4.75;;;;;;;7.94;64.24121;95144.55;;;;
2020/04/17 01:35:07;;;;;;;5.15;4.649999;;;;;;;8.06;64.40918;95141.41;;;;
2020/04/17 01:36:08;;;;;;;5.15;4.649999;;;;;;;8.06;64.40918;95141.41;;;;
2020/04/17 01:37:08;;;;;;;5.15;4.649999;;;;;;;8.06;64.40918;95141.41;;;;
2020/04/17 01:38:09;;;;;;;5.15;4.5;;;;;;;8.17;64.55273;95140.8;;;;
2020/04/17 01:39:09;;;;;;;5.15;4.5;;;;;;;8.17;64.55273;95140.8;;;;
2020/04/17 01:40:10;;;;;;;5.15;4.5;;;;;;;8.17;64.55273;95140.8;;;;
2020/04/17 01:41:10;;;;;;;5.15;4.5;;;;;;;8.17;64.55273;95140.8;;;;
2020/04/17 01:42:11;;;;;;;5.15;4.5;;;;;;;8.17;64.55273;95140.8;;;;
2020/04/17 01:43:12;;;;;;;5.15;4.5;;;;;;;8.17;64.55273;95140.8;;;;
2020/04/17 01:44:13;;;;;;;5.15;4.5;;;;;;;8.17;64.55273;95140.8;;;;
2020/04/17 01:45:13;;;;;;;5.15;4.5;;;;;;;8.17;64.55273;95140.8;;;;
2020/04/17 01:46:13;;;;;;;5.15;4.5;;;;;;;8.17;64.55273;95140.8;;;;
2020/04/17 01:47:14;;;;;;;5.15;4.5;;;;;;;8.17;64.55273;95140.8;;;;
2020/04/17 01:48:14;;;;;;;8.15;4.5;;;;;;;8.26;62.66406;95141.21;;;;
2020/04/17 01:49:15;;;;;;;8.15;4.5;;;;;;;8.26;62.66406;95141.21;;;;
2020/04/17 01:50:15;;;;;;;8.15;4.5;;;;;;;8.26;62.66406;95141.21;;;;
2020/04/17 01:51:16;;;;;;;4.8;4.1;;;;;;;8.37;63.26953;95139.11;;;;
2020/04/17 01:52:16;;;;;;;4.8;4.1;;;;;;;8.37;63.26953;95139.11;;;;
2020/04/17 01:53:17;;;;;;;6.65;4;;;;;;;8.54;63.61523;95137.46;;;;
2020/04/17 01:54:17;;;;;;;6.65;4;;;;;;;8.54;63.61523;95137.46;;;;
2020/04/17 01:55:17;;;;;;;6.65;4;;;;;;;8.54;63.61523;95137.46;;;;
2020/04/17 01:56:18;;;;;;;6.1;4.349999;;;;;;;8.71;63.72363;95136.28;;;;
2020/04/17 01:57:18;;;;;;;6.1;4.349999;;;;;;;8.71;63.72363;95136.28;;;;
2020/04/17 01:58:19;;;;;;;6.1;4.349999;;;;;;;8.71;63.72363;95136.28;;;;
2020/04/17 01:59:19;;;;;;;6.1;4.349999;;;;;;;8.71;63.72363;95136.28;;;;
2020/04/17 02:00:53;;;;;;;6.1;4.349999;;;;;;;8.71;63.72363;95136.28;;;;
2020/04/17 02:01:54;;;;;;;6.1;4.349999;;;;;;;8.71;63.72363;95136.28;;;;
2020/04/17 02:02:55;;;;;;;6.1;4.349999;;;;;;;8.71;63.72363;95136.28;;;;
2020/04/17 02:03:55;;;;;;;6.1;4.349999;;;;;;;8.71;63.72363;95136.28;;;;
2020/04/17 02:04:55;;;;;;;6.1;4.349999;;;;;;;8.71;63.72363;95136.28;;;;
2020/04/17 02:05:56;;;;;;;6.1;4.349999;;;;;;;8.71;63.72363;95136.28;;;;
2020/04/17 02:06:56;;;;;;;4.950001;4.400001;;;;;;;8.96;62.00684;95133.34;;;;
2020/04/17 02:07:57;;;;;;;4.950001;4.400001;;;;;;;8.96;62.00684;95133.34;;;;
2020/04/17 02:08:57;;;;;;;4.950001;4.400001;;;;;;;8.96;62.00684;95133.34;;;;
2020/04/17 02:09:58;;;;;;;5.299999;3.95;;;;;;;9.06;62.51367;95139;;;;
2020/04/17 02:10:58;;;;;;;5.299999;3.95;;;;;;;9.06;62.51367;95139;;;;
2020/04/17 02:11:59;;;;;;;5.299999;3.95;;;;;;;9.06;62.51367;95139;;;;
2020/04/17 02:12:59;;;;;;;5.299999;3.95;;;;;;;9.06;62.51367;95139;;;;
2020/04/17 02:14:00;;;;;;;5.299999;3.95;;;;;;;9.06;62.51367;95139;;;;
2020/04/17 02:15:01;;;;;;;5.299999;3.95;;;;;;;9.06;62.51367;95139;;;;
2020/04/17 02:16:03;;;;;;;5.299999;3.95;;;;;;;9.06;62.51367;95139;;;;
2020/04/17 02:17:03;;;;;;;5.299999;3.95;;;;;;;9.06;62.51367;95139;;;;
2020/04/17 02:18:04;;;;;;;5.299999;3.95;;;;;;;9.06;62.51367;95139;;;;
2020/04/17 02:19:05;;;;;;;5.299999;3.95;;;;;;;9.06;62.51367;95139;;;;
2020/04/17 02:20:05;;;;;;;5.95;3.9;;;;;;;9.15;61.27344;95145.7;;;;
2020/04/17 02:21:06;;;;;;;5.95;3.9;;;;;;;9.15;61.27344;95145.7;;;;
2020/04/17 02:22:07;;;;;;;5.95;3.9;;;;;;;9.15;61.27344;95145.7;;;;
2020/04/17 02:23:07;;;;;;;4.849999;3.85;;;;;;;9.2;61.9873;95146.34;;;;
2020/04/17 02:24:08;;;;;;;4.849999;3.85;;;;;;;9.2;61.9873;95146.34;;;;
2020/04/17 02:25:08;;;;;;;5.85;4.25;;;;;;;9.3;62.28027;95145.28;;;;
2020/04/17 02:26:08;;;;;;;5.85;4.25;;;;;;;9.3;62.28027;95145.28;;;;
2020/04/17 02:27:09;;;;;;;5.85;4.25;;;;;;;9.3;62.28027;95145.28;;;;
2020/04/17 02:28:09;;;;;;;10.05;4.5;;;;;;;9.38;62.49414;95147.62;;;;
2020/04/17 02:29:10;;;;;;;10.05;4.5;;;;;;;9.38;62.49414;95147.62;;;;
2020/04/17 02:30:10;;;;;;;10.05;4.5;;;;;;;9.38;62.49414;95147.62;;;;
2020/04/17 02:31:11;;;;;;;4.600001;4.099999;;;;;;;9.44;62.61133;95139.45;;;;
2020/04/17 02:32:11;;;;;;;4.600001;4.099999;;;;;;;9.44;62.61133;95139.45;;;;
2020/04/17 02:33:12;;;;;;;4.600001;4.099999;;;;;;;9.44;62.61133;95139.45;;;;
2020/04/17 02:34:12;;;;;;;4.600001;4.099999;;;;;;;9.44;62.61133;95139.45;;;;
2020/04/17 02:35:13;;;;;;;4.600001;4.099999;;;;;;;9.44;62.61133;95139.45;;;;
2020/04/17 02:36:13;;;;;;;4.600001;4.099999;;;;;;;9.44;62.61133;95139.45;;;;
2020/04/17 02:37:14;;;;;;;4.600001;4.099999;;;;;;;9.44;62.61133;95139.45;;;;
2020/04/17 02:38:14;;;;;;;4.600001;4.099999;;;;;;;9.44;62.61133;95139.45;;;;
2020/04/17 02:39:15;;;;;;;4.600001;4.099999;;;;;;;9.44;62.61133;95139.45;;;;
2020/04/17 02:40:16;;;;;;;4.600001;4.099999;;;;;;;9.44;62.61133;95139.45;;;;
2020/04/17 02:41:17;;;;;;;5.8;4.050001;;;;;;;9.31;61.40332;95143.28;;;;
2020/04/17 02:42:17;;;;;;;5.8;4.050001;;;;;;;9.31;61.40332;95143.28;;;;
2020/04/17 02:43:18;;;;;;;5.8;4.050001;;;;;;;9.31;61.40332;95143.28;;;;
2020/04/17 02:47:22;;;;;;;4.699999;4.3;;;;;;;9.38;62.51563;95138.6;;;;
2020/04/17 02:48:22;;;;;;;4.699999;4.3;;;;;;;9.38;62.51563;95138.6;;;;
2020/04/17 02:49:23;;;;;;;4.699999;4.3;;;;;;;9.38;62.51563;95138.6;;;;
2020/04/17 02:50:23;;;;;;;4.699999;4.3;;;;;;;9.38;62.51563;95138.6;;;;
2020/04/17 02:51:24;;;;;;;4.699999;4.3;;;;;;;9.38;62.51563;95138.6;;;;
2020/04/17 02:52:24;;;;;;;4.699999;4.3;;;;;;;9.38;62.51563;95138.6;;;;
2020/04/17 02:53:25;;;;;;;4.699999;4.3;;;;;;;9.38;62.51563;95138.6;;;;
2020/04/17 02:54:26;;;;;;;4.699999;4.3;;;;;;;9.38;62.51563;95138.6;;;;
2020/04/17 02:55:26;;;;;;;4.699999;4.3;;;;;;;9.38;62.51563;95138.6;;;;
2020/04/17 02:56:27;;;;;;;4.699999;4.3;;;;;;;9.38;62.51563;95138.6;;;;
2020/04/17 02:57:28;;;;;;;6.3;4.4;;;;;;;9.19;61.54688;95138.81;;;;
2020/04/17 02:58:29;;;;;;;6.3;4.4;;;;;;;9.19;61.54688;95138.81;;;;
2020/04/17 02:59:30;;;;;;;5.450001;4.199999;;;;;;;9.22;62.39746;95144.14;;;;
2020/04/17 03:00:35;;;;;;;5.450001;4.199999;;;;;;;9.22;62.39746;95144.14;;;;
2020/04/17 03:01:36;;;;;;;5.450001;4.199999;;;;;;;9.22;62.39746;95144.14;;;;
2020/04/17 03:02:37;;;;;;;4.849999;4.349999;;;;;;;9.3;62.76172;95141.1;;;;
2020/04/17 03:03:38;;;;;;;4.849999;4.349999;;;;;;;9.3;62.76172;95141.1;;;;
2020/04/17 03:04:38;;;;;;;4.849999;4.349999;;;;;;;9.3;62.76172;95141.1;;;;
2020/04/17 03:05:39;;;;;;;7.25;4.1;;;;;;;9.39;62.97852;95146.45;;;;
2020/04/17 03:06:39;;;;;;;7.25;4.1;;;;;;;9.39;62.97852;95146.45;;;;
2020/04/17 03:07:40;;;;;;;7.25;4.1;;;;;;;9.39;62.97852;95146.45;;;;
2020/04/17 03:08:40;;;;;;;7.25;4.1;;;;;;;9.39;62.97852;95146.45;;;;
2020/04/17 03:09:41;;;;;;;7.25;4.1;;;;;;;9.39;62.97852;95146.45;;;;
2020/04/17 03:10:41;;;;;;;7.25;4.1;;;;;;;9.39;62.97852;95146.45;;;;
2020/04/17 03:11:42;;;;;;;7.25;4.1;;;;;;;9.39;62.97852;95146.45;;;;
2020/04/17 03:12:42;;;;;;;7.25;4.1;;;;;;;9.39;62.97852;95146.45;;;;
2020/04/17 03:13:42;;;;;;;7.25;4.1;;;;;;;9.39;62.97852;95146.45;;;;
2020/04/17 03:14:43;;;;;;;7.25;4.1;;;;;;;9.39;62.97852;95146.45;;;;
2020/04/17 03:15:43;;;;;;;5.5;4.2;;;;;;;9.34;61.74121;95129.75;;;;
2020/04/17 03:16:44;;;;;;;5.5;4.2;;;;;;;9.34;61.74121;95129.75;;;;
2020/04/17 03:17:44;;;;;;;5.5;4.2;;;;;;;9.34;61.74121;95129.75;;;;
2020/04/17 03:18:45;;;;;;;4.900001;4.400001;;;;;;;9.38;62.37695;95131.87;;;;
2020/04/17 03:19:45;;;;;;;4.900001;4.400001;;;;;;;9.38;62.37695;95131.87;;;;
2020/04/17 03:20:46;;;;;;;4.900001;4.400001;;;;;;;9.38;62.37695;95131.87;;;;
2020/04/17 03:21:46;;;;;;;4.900001;4.400001;;;;;;;9.38;62.37695;95131.87;;;;
2020/04/17 03:22:47;;;;;;;4.900001;4.400001;;;;;;;9.38;62.37695;95131.87;;;;
2020/04/17 03:23:47;;;;;;;4.900001;4.400001;;;;;;;9.38;62.37695;95131.87;;;;
2020/04/17 03:24:47;;;;;;;4.900001;4.400001;;;;;;;9.38;62.37695;95131.87;;;;
2020/04/17 03:25:48;;;;;;;4.900001;4.400001;;;;;;;9.38;62.37695;95131.87;;;;
2020/04/17 03:26:48;;;;;;;4.900001;4.400001;;;;;;;9.38;62.37695;95131.87;;;;
2020/04/17 03:27:49;;;;;;;4.900001;4.400001;;;;;;;9.38;62.37695;95131.87;;;;
2020/04/17 03:28:49;;;;;;;5.300001;4.3;;;;;;;9.26;61.5791;95131.45;;;;
2020/04/17 03:29:50;;;;;;;5.300001;4.3;;;;;;;9.26;61.5791;95131.45;;;;
2020/04/17 03:30:50;;;;;;;5.300001;4.3;;;;;;;9.26;61.5791;95131.45;;;;
2020/04/17 03:31:51;;;;;;;6;4.25;;;;;;;9.26;62.45703;95126.44;;;;
2020/04/17 03:32:51;;;;;;;6;4.25;;;;;;;9.26;62.45703;95126.44;;;;
2020/04/17 03:33:51;;;;;;;4.9;4.4;;;;;;;9.3;62.82617;95132.22;;;;
2020/04/17 03:34:52;;;;;;;4.9;4.4;;;;;;;9.3;62.82617;95132.22;;;;
2020/04/17 03:35:52;;;;;;;4.9;4.4;;;;;;;9.3;62.82617;95132.22;;;;
2020/04/17 03:36:53;;;;;;;6.45;4.55;;;;;;;9.33;63.18359;95126.36;;;;
2020/04/17 03:37:53;;;;;;;6.45;4.55;;;;;;;9.33;63.18359;95126.36;;;;
2020/04/17 03:38:54;;;;;;;6.45;4.55;;;;;;;9.33;63.18359;95126.36;;;;
2020/04/17 03:39:54;;;;;;;6.45;4.55;;;;;;;9.33;63.18359;95126.36;;;;
2020/04/17 03:40:55;;;;;;;6.45;4.55;;;;;;;9.33;63.18359;95126.36;;;;
2020/04/17 03:41:55;;;;;;;6.45;4.55;;;;;;;9.33;63.18359;95126.36;;;;
2020/04/17 03:42:56;;;;;;;6.45;4.55;;;;;;;9.33;63.18359;95126.36;;;;
2020/04/17 03:43:56;;;;;;;6.45;4.55;;;;;;;9.33;63.18359;95126.36;;;;
2020/04/17 03:44:56;;;;;;;6.45;4.55;;;;;;;9.33;63.18359;95126.36;;;;
2020/04/17 03:45:57;;;;;;;6.45;4.55;;;;;;;9.33;63.18359;95126.36;;;;
2020/04/17 03:46:58;;;;;;;6.45;4.55;;;;;;;9.33;63.18359;95126.36;;;;
2020/04/17 03:47:58;;;;;;;5.2;4.1;;;;;;;8.95;62.31543;95120.53;;;;
2020/04/17 03:48:59;;;;;;;5.2;4.1;;;;;;;8.95;62.31543;95120.53;;;;
2020/04/17 03:50:00;;;;;;;6.25;4.45;;;;;;;8.9;63.22852;95121.23;;;;
2020/04/17 03:51:01;;;;;;;6.25;4.45;;;;;;;8.9;63.22852;95121.23;;;;
2020/04/17 03:52:01;;;;;;;6.25;4.45;;;;;;;8.9;63.22852;95121.23;;;;
2020/04/17 03:53:02;;;;;;;6.25;4.45;;;;;;;8.9;63.22852;95121.23;;;;
2020/04/17 03:54:02;;;;;;;6.25;4.45;;;;;;;8.9;63.22852;95121.23;;;;
2020/04/17 03:55:03;;;;;;;6.25;4.45;;;;;;;8.9;63.22852;95121.23;;;;
2020/04/17 03:56:06;;;;;;;6.25;4.45;;;;;;;8.9;63.22852;95121.23;;;;
2020/04/17 03:57:06;;;;;;;6.25;4.45;;;;;;;8.9;63.22852;95121.23;;;;
2020/04/17 03:58:07;;;;;;;6.25;4.45;;;;;;;8.9;63.22852;95121.23;;;;
2020/04/17 03:59:07;;;;;;;6.25;4.45;;;;;;;8.9;63.22852;95121.23;;;;
2020/04/17 04:00:08;;;;;;;6.25;4.45;;;;;;;8.9;63.22852;95121.23;;;;
2020/04/17 04:01:08;;;;;;;6.85;4.95;;;;;;;8.58;62.61426;95117.64;;;;
2020/04/17 04:02:09;;;;;;;6.85;4.95;;;;;;;8.58;62.61426;95117.64;;;;
2020/04/17 04:03:09;;;;;;;5.900001;4.85;;;;;;;8.55;63.52051;95120.25;;;;
2020/04/17 04:04:10;;;;;;;5.900001;4.85;;;;;;;8.55;63.52051;95120.25;;;;
2020/04/17 04:05:10;;;;;;;5.900001;4.85;;;;;;;8.55;63.52051;95120.25;;;;
2020/04/17 04:06:11;;;;;;;6.85;4.75;;;;;;;8.58;64.14258;95126.14;;;;
2020/04/17 04:07:11;;;;;;;6.85;4.75;;;;;;;8.58;64.14258;95126.14;;;;
2020/04/17 04:08:12;;;;;;;6.85;4.75;;;;;;;8.58;64.14258;95126.14;;;;
2020/04/17 04:09:12;;;;;;;6.4;4.900001;;;;;;;8.59;64.61426;95120.62;;;;
2020/04/17 04:10:12;;;;;;;6.4;4.900001;;;;;;;8.59;64.61426;95120.62;;;;
2020/04/17 04:11:13;;;;;;;6.4;4.900001;;;;;;;8.59;64.61426;95120.62;;;;
2020/04/17 04:12:13;;;;;;;6.4;4.900001;;;;;;;8.59;64.61426;95120.62;;;;
2020/04/17 04:13:14;;;;;;;6.4;4.900001;;;;;;;8.59;64.61426;95120.62;;;;
2020/04/17 04:14:19;;;;;;;6.4;4.900001;;;;;;;8.59;64.61426;95120.62;;;;
2020/04/17 04:15:20;;;;;;;6.4;4.900001;;;;;;;8.59;64.61426;95120.62;;;;
2020/04/17 04:16:20;;;;;;;6.4;4.900001;;;;;;;8.59;64.61426;95120.62;;;;
2020/04/17 04:17:21;;;;;;;6.4;4.900001;;;;;;;8.59;64.61426;95120.62;;;;
2020/04/17 04:18:21;;;;;;;6.4;4.900001;;;;;;;8.59;64.61426;95120.62;;;;
2020/04/17 04:19:22;;;;;;;7.65;4.7;;;;;;;8.24;63.5918;95124.89;;;;
2020/04/17 04:20:22;;;;;;;7.65;4.7;;;;;;;8.24;63.5918;95124.89;;;;
2020/04/17 04:21:23;;;;;;;7.65;4.7;;;;;;;8.24;63.5918;95124.89;;;;
2020/04/17 04:22:23;;;;;;;7.65;4.7;;;;;;;8.24;63.5918;95124.89;;;;
2020/04/17 04:23:24;;;;;;;7.65;4.7;;;;;;;8.24;63.5918;95124.89;;;;
2020/04/17 04:24:24;;;;;;;7.65;4.7;;;;;;;8.24;63.5918;95124.89;;;;
2020/04/17 04:25:25;;;;;;;7.65;4.7;;;;;;;8.24;63.5918;95124.89;;;;
2020/04/17 04:26:25;;;;;;;7.65;4.7;;;;;;;8.24;63.5918;95124.89;;;;
2020/04/17 04:27:25;;;;;;;7.65;4.7;;;;;;;8.24;63.5918;95124.89;;;;
2020/04/17 04:28:26;;;;;;;7.65;4.7;;;;;;;8.24;63.5918;95124.89;;;;
2020/04/17 04:29:26;;;;;;;7.100001;4.450001;;;;;;;8.06;63.35059;95132.12;;;;
2020/04/17 04:30:27;;;;;;;7.100001;4.450001;;;;;;;8.06;63.35059;95132.12;;;;
2020/04/17 04:31:27;;;;;;;7.100001;4.450001;;;;;;;8.06;63.35059;95132.12;;;;
2020/04/17 04:32:28;;;;;;;7.100001;4.450001;;;;;;;8.06;63.35059;95132.12;;;;
2020/04/17 04:33:28;;;;;;;7.100001;4.450001;;;;;;;8.06;63.35059;95132.12;;;;
2020/04/17 04:34:28;;;;;;;7.100001;4.450001;;;;;;;8.06;63.35059;95132.12;;;;
2020/04/17 04:35:29;;;;;;;7.100001;4.450001;;;;;;;8.06;63.35059;95132.12;;;;
2020/04/17 04:36:29;;;;;;;7.100001;4.450001;;;;;;;8.06;63.35059;95132.12;;;;
2020/04/17 04:37:30;;;;;;;7.100001;4.450001;;;;;;;8.06;63.35059;95132.12;;;;
2020/04/17 04:38:30;;;;;;;7.100001;4.450001;;;;;;;8.06;63.35059;95132.12;;;;
2020/04/17 04:39:31;;;;;;;7.100001;4.450001;;;;;;;8.06;63.35059;95132.12;;;;
2020/04/17 04:40:31;;;;;;;5.35;4.4;;;;;;;7.97;63.06152;95145.01;;;;
2020/04/17 04:41:32;;;;;;;5.35;4.4;;;;;;;7.97;63.06152;95145.01;;;;
2020/04/17 04:42:32;;;;;;;5.35;4.4;;;;;;;7.97;63.06152;95145.01;;;;
2020/04/17 04:43:33;;;;;;;5.95;4.199999;;;;;;;8.03;64.16895;95147.34;;;;
2020/04/17 04:44:33;;;;;;;5.95;4.199999;;;;;;;8.03;64.16895;95147.34;;;;
2020/04/17 04:45:33;;;;;;;5.95;4.199999;;;;;;;8.03;64.16895;95147.34;;;;
2020/04/17 04:46:34;;;;;;;5.95;4.199999;;;;;;;8.03;64.16895;95147.34;;;;
2020/04/17 04:47:34;;;;;;;5.95;4.199999;;;;;;;8.03;64.16895;95147.34;;;;
2020/04/17 04:48:35;;;;;;;5.95;4.199999;;;;;;;8.03;64.16895;95147.34;;;;
2020/04/17 04:49:35;;;;;;;5.95;4.199999;;;;;;;8.03;64.16895;95147.34;;;;
2020/04/17 04:50:36;;;;;;;5.95;4.199999;;;;;;;8.03;64.16895;95147.34;;;;
2020/04/17 04:51:36;;;;;;;5.95;4.199999;;;;;;;8.03;64.16895;95147.34;;;;
2020/04/17 04:52:37;;;;;;;5.95;4.199999;;;;;;;8.03;64.16895;95147.34;;;;
2020/04/17 04:53:37;;;;;;;6.05;4.649999;;;;;;;8.11;63.26172;95144.37;;;;
2020/04/17 04:54:38;;;;;;;6.05;4.649999;;;;;;;8.11;63.26172;95144.37;;;;
2020/04/17 04:55:38;;;;;;;6.05;4.649999;;;;;;;8.11;63.26172;95144.37;;;;
2020/04/17 04:56:39;;;;;;;6.05;4.649999;;;;;;;8.11;63.26172;95144.37;;;;
2020/04/17 04:57:39;;;;;;;6.05;4.649999;;;;;;;8.11;63.26172;95144.37;;;;
2020/04/17 04:58:39;;;;;;;6.05;4.649999;;;;;;;8.11;63.26172;95144.37;;;;
2020/04/17 04:59:40;;;;;;;6.05;4.649999;;;;;;;8.11;63.26172;95144.37;;;;
2020/04/17 05:00:40;;;;;;;6.05;4.649999;;;;;;;8.11;63.26172;95144.37;;;;
2020/04/17 05:01:41;;;;;;;6.05;4.649999;;;;;;;8.11;63.26172;95144.37;;;;
2020/04/17 05:02:41;;;;;;;6.05;4.649999;;;;;;;8.11;63.26172;95144.37;;;;
2020/04/17 05:03:42;;;;;;;6.05;4.649999;;;;;;;8.11;63.26172;95144.37;;;;
2020/04/17 05:04:42;;;;;;;4.95;4.15;;;;;;;8.31;62.72559;95149.03;;;;
2020/04/17 05:05:43;;;;;;;4.95;4.15;;;;;;;8.31;62.72559;95149.03;;;;
2020/04/17 05:06:43;;;;;;;4.95;4.15;;;;;;;8.31;62.72559;95149.03;;;;
2020/04/17 05:07:43;;;;;;;4.95;4.15;;;;;;;8.31;62.72559;95149.03;;;;
2020/04/17 05:08:44;;;;;;;4.95;4.15;;;;;;;8.31;62.72559;95149.03;;;;
2020/04/17 05:09:44;;;;;;;4.95;4.15;;;;;;;8.31;62.72559;95149.03;;;;
2020/04/17 05:10:45;;;;;;;4.95;4.15;;;;;;;8.31;62.72559;95149.03;;;;
2020/04/17 05:11:45;;;;;;;4.95;4.15;;;;;;;8.31;62.72559;95149.03;;;;
2020/04/17 05:12:46;;;;;;;4.95;4.15;;;;;;;8.31;62.72559;95149.03;;;;
2020/04/17 05:13:46;;;;;;;4.95;4.15;;;;;;;8.31;62.72559;95149.03;;;;
2020/04/17 05:14:47;;;;;;;5.2;4.25;;;;;;;8.6;62.25488;95154.96;;;;
2020/04/17 05:15:47;;;;;;;5.2;4.25;;;;;;;8.6;62.25488;95154.96;;;;
2020/04/17 05:16:48;;;;;;;5.2;4.25;;;;;;;8.6;62.25488;95154.96;;;;
2020/04/17 05:17:48;;;;;;;5.2;4.25;;;;;;;8.6;62.25488;95154.96;;;;
2020/04/17 05:18:48;;;;;;;5.2;4.25;;;;;;;8.6;62.25488;95154.96;;;;
2020/04/17 05:19:49;;;;;;;5.2;4.25;;;;;;;8.6;62.25488;95154.96;;;;
2020/04/17 05:20:49;;;;;;;5.2;4.25;;;;;;;8.6;62.25488;95154.96;;;;
2020/04/17 05:21:50;;;;;;;5.2;4.25;;;;;;;8.6;62.25488;95154.96;;;;
2020/04/17 05:22:50;;;;;;;5.2;4.25;;;;;;;8.6;62.25488;95154.96;;;;
2020/04/17 05:23:51;;;;;;;5.2;4.25;;;;;;;8.6;62.25488;95154.96;;;;
2020/04/17 05:24:51;;;;;;;5.2;4.25;;;;;;;8.6;62.25488;95154.96;;;;
2020/04/17 05:25:52;;;;;;;6.750001;4.349999;;;;;;;9.1;61.65234;95163.09;;;;
2020/04/17 05:26:52;;;;;;;6.750001;4.349999;;;;;;;9.1;61.65234;95163.09;;;;
2020/04/17 05:27:52;;;;;;;6.750001;4.349999;;;;;;;9.1;61.65234;95163.09;;;;
2020/04/17 05:28:53;;;;;;;6.750001;4.349999;;;;;;;9.1;61.65234;95163.09;;;;
2020/04/17 05:29:53;;;;;;;6.750001;4.349999;;;;;;;9.1;61.65234;95163.09;;;;
2020/04/17 05:30:54;;;;;;;6.750001;4.349999;;;;;;;9.1;61.65234;95163.09;;;;
2020/04/17 05:31:54;;;;;;;6.750001;4.349999;;;;;;;9.1;61.65234;95163.09;;;;
2020/04/17 05:32:55;;;;;;;6.750001;4.349999;;;;;;;9.1;61.65234;95163.09;;;;
2020/04/17 05:33:55;;;;;;;6.750001;4.349999;;;;;;;9.1;61.65234;95163.09;;;;
2020/04/17 05:34:56;;;;;;;6.750001;4.349999;;;;;;;9.1;61.65234;95163.09;;;;
2020/04/17 05:35:56;;;;;;;6.399999;4.25;;;;;;;9.55;60.93262;95163;;;;
2020/04/17 05:36:57;;;;;;;6.399999;4.25;;;;;;;9.55;60.93262;95163;;;;
2020/04/17 05:37:57;;;;;;;6.399999;4.25;;;;;;;9.55;60.93262;95163;;;;
2020/04/17 05:38:58;;;;;;;6.399999;4.25;;;;;;;9.55;60.93262;95163;;;;
2020/04/17 05:39:58;;;;;;;6.399999;4.25;;;;;;;9.55;60.93262;95163;;;;
2020/04/17 05:40:58;;;;;;;6.399999;4.25;;;;;;;9.55;60.93262;95163;;;;
2020/04/17 05:42:00;;;;;;;6.399999;4.25;;;;;;;9.55;60.93262;95163;;;;
2020/04/17 05:43:00;;;;;;;6.399999;4.25;;;;;;;9.55;60.93262;95163;;;;
2020/04/17 05:44:01;;;;;;;6.399999;4.25;;;;;;;9.55;60.93262;95163;;;;